sensor_id;sensor_type;location;lat;lon;timestamp;pressure;altitude;pressure_sealevel;temperature;humidity
788;BME280;16074;42.708;23.312;2022-08-03T00:01:44;94980.31;;;21.83;61.66
788;BME280;16074;42.708;23.312;2022-08-03T00:04:12;94982.53;;;21.70;61.56
788;BME280;16074;42.708;23.312;2022-08-03T00:06:40;94980.69;;;21.54;61.07
788;BME280;16074;42.708;23.312;2022-08-03T00:09:10;94980.88;;;21.48;62.07
788;BME280;16074;42.708;23.312;2022-08-03T00:11:38;94968.91;;;21.50;62.97
788;BME280;16074;42.708;23.312;2022-08-03T00:14:07;94971.81;;;21.49;63.01
788;BME280;16074;42.708;23.312;2022-08-03T00:16:35;94973.91;;;21.47;63.42
788;BME280;16074;42.708;23.312;2022-08-03T00:19:03;94977.06;;;21.44;63.76
788;BME280;16074;42.708;23.312;2022-08-03T00:21:31;94971.91;;;21.37;64.52
788;BME280;16074;42.708;23.312;2022-08-03T00:23:59;94968.41;;;21.37;64.39
788;BME280;16074;42.708;23.312;2022-08-03T00:26:29;94972.63;;;21.33;64.49
788;BME280;16074;42.708;23.312;2022-08-03T00:28:58;94974.03;;;21.35;65.03
788;BME280;16074;42.708;23.312;2022-08-03T00:31:26;94974.81;;;21.36;65.34
788;BME280;16074;42.708;23.312;2022-08-03T00:34:14;94974.66;;;21.26;65.19
788;BME280;16074;42.708;23.312;2022-08-03T00:36:56;94969.41;;;21.31;65.57
788;BME280;16074;42.708;23.312;2022-08-03T00:39:24;94983.75;;;21.25;65.71
788;BME280;16074;42.708;23.312;2022-08-03T00:41:54;94974.19;;;21.29;65.52
788;BME280;16074;42.708;23.312;2022-08-03T00:44:22;94972.81;;;21.26;66.08
788;BME280;16074;42.708;23.312;2022-08-03T00:46:50;94967.47;;;21.26;66.35
788;BME280;16074;42.708;23.312;2022-08-03T00:49:19;94972.34;;;21.29;66.45
788;BME280;16074;42.708;23.312;2022-08-03T00:51:47;94977.44;;;21.14;66.38
788;BME280;16074;42.708;23.312;2022-08-03T00:54:15;94979.63;;;21.17;66.62
788;BME280;16074;42.708;23.312;2022-08-03T00:56:44;94968.72;;;21.19;66.75
788;BME280;16074;42.708;23.312;2022-08-03T00:59:28;94969.91;;;21.11;66.73
788;BME280;16074;42.708;23.312;2022-08-03T01:01:56;94967.00;;;21.13;66.63
788;BME280;16074;42.708;23.312;2022-08-03T01:04:25;94975.75;;;21.08;66.78
788;BME280;16074;42.708;23.312;2022-08-03T01:07:01;94969.53;;;21.03;66.36
788;BME280;16074;42.708;23.312;2022-08-03T01:09:41;94971.47;;;20.91;66.65
788;BME280;16074;42.708;23.312;2022-08-03T01:12:17;94964.75;;;20.88;67.14
788;BME280;16074;42.708;23.312;2022-08-03T01:14:54;94968.41;;;20.82;67.11
788;BME280;16074;42.708;23.312;2022-08-03T01:17:33;94971.06;;;20.82;67.14
788;BME280;16074;42.708;23.312;2022-08-03T01:20:06;94972.00;;;20.76;67.30
788;BME280;16074;42.708;23.312;2022-08-03T01:23:03;94967.47;;;20.77;68.06
788;BME280;16074;42.708;23.312;2022-08-03T01:25:42;94968.78;;;20.74;68.10
788;BME280;16074;42.708;23.312;2022-08-03T01:28:32;94960.28;;;20.61;68.77
788;BME280;16074;42.708;23.312;2022-08-03T01:31:09;94970.13;;;20.60;68.74
788;BME280;16074;42.708;23.312;2022-08-03T01:33:41;94970.50;;;20.52;68.84
788;BME280;16074;42.708;23.312;2022-08-03T01:36:13;94968.25;;;20.44;69.85
788;BME280;16074;42.708;23.312;2022-08-03T01:38:46;94964.94;;;20.38;70.15
788;BME280;16074;42.708;23.312;2022-08-03T01:41:20;94963.53;;;20.35;69.47
788;BME280;16074;42.708;23.312;2022-08-03T01:43:49;94962.75;;;20.35;69.92
788;BME280;16074;42.708;23.312;2022-08-03T01:46:41;94977.63;;;20.31;70.10
788;BME280;16074;42.708;23.312;2022-08-03T01:49:15;94983.66;;;20.26;70.42
788;BME280;16074;42.708;23.312;2022-08-03T01:51:46;94976.00;;;20.30;70.82
788;BME280;16074;42.708;23.312;2022-08-03T01:54:37;94976.94;;;20.24;70.86
788;BME280;16074;42.708;23.312;2022-08-03T01:57:08;94972.41;;;20.24;70.53
788;BME280;16074;42.708;23.312;2022-08-03T01:59:37;94966.09;;;20.14;70.68
788;BME280;16074;42.708;23.312;2022-08-03T02:02:11;94969.94;;;20.06;70.91
788;BME280;16074;42.708;23.312;2022-08-03T02:05:00;94975.13;;;20.13;71.21
788;BME280;16074;42.708;23.312;2022-08-03T02:07:31;94974.88;;;20.14;71.20
788;BME280;16074;42.708;23.312;2022-08-03T02:10:02;94976.03;;;20.18;71.22
788;BME280;16074;42.708;23.312;2022-08-03T02:12:32;94977.91;;;20.18;70.55
788;BME280;16074;42.708;23.312;2022-08-03T02:15:02;94973.50;;;20.12;70.68
788;BME280;16074;42.708;23.312;2022-08-03T02:17:33;94976.19;;;20.12;70.45
788;BME280;16074;42.708;23.312;2022-08-03T02:20:07;94972.63;;;20.06;71.12
788;BME280;16074;42.708;23.312;2022-08-03T02:22:39;94968.66;;;19.97;71.72
788;BME280;16074;42.708;23.312;2022-08-03T02:25:08;94968.66;;;19.97;71.46
788;BME280;16074;42.708;23.312;2022-08-03T02:27:38;94968.78;;;19.91;72.41
788;BME280;16074;42.708;23.312;2022-08-03T02:30:11;94966.03;;;19.86;72.53
788;BME280;16074;42.708;23.312;2022-08-03T02:32:43;94966.03;;;19.86;72.13
788;BME280;16074;42.708;23.312;2022-08-03T02:35:16;94962.34;;;19.75;71.76
788;BME280;16074;42.708;23.312;2022-08-03T02:37:49;94973.84;;;19.76;71.97
788;BME280;16074;42.708;23.312;2022-08-03T02:40:20;94972.59;;;19.67;72.27
788;BME280;16074;42.708;23.312;2022-08-03T02:42:52;94969.00;;;19.61;73.05
788;BME280;16074;42.708;23.312;2022-08-03T02:45:22;94972.59;;;19.67;73.15
788;BME280;16074;42.708;23.312;2022-08-03T02:47:55;94963.97;;;19.76;72.64
788;BME280;16074;42.708;23.312;2022-08-03T02:50:25;94970.81;;;19.72;72.33
788;BME280;16074;42.708;23.312;2022-08-03T02:52:55;94970.63;;;19.51;72.01
788;BME280;16074;42.708;23.312;2022-08-03T02:55:26;94967.63;;;19.59;72.56
788;BME280;16074;42.708;23.312;2022-08-03T02:57:55;94969.09;;;19.66;72.46
788;BME280;16074;42.708;23.312;2022-08-03T03:00:28;94962.25;;;19.70;72.35
788;BME280;16074;42.708;23.312;2022-08-03T03:03:01;94986.38;;;19.64;72.03
788;BME280;16074;42.708;23.312;2022-08-03T03:05:32;94985.56;;;19.63;72.19
788;BME280;16074;42.708;23.312;2022-08-03T03:08:22;94987.31;;;19.58;72.34
788;BME280;16074;42.708;23.312;2022-08-03T03:10:56;94987.78;;;19.55;72.75
788;BME280;16074;42.708;23.312;2022-08-03T03:13:26;94992.63;;;19.58;73.53
788;BME280;16074;42.708;23.312;2022-08-03T03:15:56;94991.16;;;19.50;73.08
788;BME280;16074;42.708;23.312;2022-08-03T03:18:28;94993.59;;;19.40;74.01
788;BME280;16074;42.708;23.312;2022-08-03T03:20:58;95004.81;;;19.31;74.87
788;BME280;16074;42.708;23.312;2022-08-03T03:23:28;94995.66;;;19.27;75.09
788;BME280;16074;42.708;23.312;2022-08-03T03:25:59;94997.78;;;19.25;75.27
788;BME280;16074;42.708;23.312;2022-08-03T03:28:29;95004.03;;;19.19;74.94
788;BME280;16074;42.708;23.312;2022-08-03T03:30:58;94996.75;;;19.26;75.34
788;BME280;16074;42.708;23.312;2022-08-03T03:33:28;95001.69;;;19.23;75.34
788;BME280;16074;42.708;23.312;2022-08-03T03:35:57;95001.00;;;19.16;75.67
788;BME280;16074;42.708;23.312;2022-08-03T03:38:26;95010.47;;;19.12;76.14
788;BME280;16074;42.708;23.312;2022-08-03T03:40:54;95006.75;;;19.13;76.35
788;BME280;16074;42.708;23.312;2022-08-03T03:43:23;95016.13;;;19.04;76.96
788;BME280;16074;42.708;23.312;2022-08-03T03:45:51;95007.22;;;19.10;76.80
788;BME280;16074;42.708;23.312;2022-08-03T03:48:20;95016.94;;;19.04;77.06
788;BME280;16074;42.708;23.312;2022-08-03T03:50:50;95022.47;;;19.03;77.29
788;BME280;16074;42.708;23.312;2022-08-03T03:53:18;95025.16;;;19.03;77.49
788;BME280;16074;42.708;23.312;2022-08-03T03:55:47;95028.19;;;19.06;76.75
788;BME280;16074;42.708;23.312;2022-08-03T03:58:30;95028.06;;;19.01;77.89
788;BME280;16074;42.708;23.312;2022-08-03T04:00:58;95026.31;;;19.07;77.65
788;BME280;16074;42.708;23.312;2022-08-03T04:03:27;95017.66;;;19.11;77.48
788;BME280;16074;42.708;23.312;2022-08-03T04:05:57;95015.34;;;19.15;77.56
788;BME280;16074;42.708;23.312;2022-08-03T04:08:44;95013.84;;;19.19;77.60
788;BME280;16074;42.708;23.312;2022-08-03T04:11:33;95012.59;;;19.21;77.00
788;BME280;16074;42.708;23.312;2022-08-03T04:14:06;95009.25;;;19.14;77.08
788;BME280;16074;42.708;23.312;2022-08-03T04:16:37;95011.31;;;19.23;76.63
788;BME280;16074;42.708;23.312;2022-08-03T04:19:13;95011.19;;;19.30;77.61
788;BME280;16074;42.708;23.312;2022-08-03T04:21:53;95011.66;;;19.27;77.58
788;BME280;16074;42.708;23.312;2022-08-03T04:24:24;95018.72;;;19.33;77.22
788;BME280;16074;42.708;23.312;2022-08-03T04:26:55;95021.38;;;19.44;77.69
788;BME280;16074;42.708;23.312;2022-08-03T04:29:25;95017.91;;;19.44;76.74
788;BME280;16074;42.708;23.312;2022-08-03T04:31:57;95018.38;;;19.41;76.56
788;BME280;16074;42.708;23.312;2022-08-03T04:34:29;95018.59;;;19.51;76.97
788;BME280;16074;42.708;23.312;2022-08-03T04:37:02;95022.16;;;19.56;76.39
788;BME280;16074;42.708;23.312;2022-08-03T04:39:34;95022.16;;;19.56;75.89
788;BME280;16074;42.708;23.312;2022-08-03T04:42:05;95032.34;;;19.59;76.19
788;BME280;16074;42.708;23.312;2022-08-03T04:44:37;95032.00;;;19.67;76.24
788;BME280;16074;42.708;23.312;2022-08-03T04:47:06;95028.88;;;19.70;76.08
788;BME280;16074;42.708;23.312;2022-08-03T04:49:35;95035.72;;;19.78;75.69
788;BME280;16074;42.708;23.312;2022-08-03T04:52:06;95031.66;;;19.75;75.22
788;BME280;16074;42.708;23.312;2022-08-03T04:54:39;95034.22;;;19.82;74.77
788;BME280;16074;42.708;23.312;2022-08-03T04:57:14;95039.28;;;19.83;74.68
788;BME280;16074;42.708;23.312;2022-08-03T04:59:50;95049.69;;;19.85;74.24
788;BME280;16074;42.708;23.312;2022-08-03T05:02:30;95053.31;;;19.90;73.77
788;BME280;16074;42.708;23.312;2022-08-03T05:04:59;95055.03;;;19.96;74.45
788;BME280;16074;42.708;23.312;2022-08-03T05:07:28;95052.72;;;20.00;74.68
788;BME280;16074;42.708;23.312;2022-08-03T05:10:04;95057.25;;;19.99;74.64
788;BME280;16074;42.708;23.312;2022-08-03T05:12:43;95047.28;;;20.06;74.42
788;BME280;16074;42.708;23.312;2022-08-03T05:15:12;95052.16;;;20.09;74.38
788;BME280;16074;42.708;23.312;2022-08-03T05:17:40;95052.94;;;20.10;73.81
788;BME280;16074;42.708;23.312;2022-08-03T05:20:09;95063.50;;;20.05;73.52
788;BME280;16074;42.708;23.312;2022-08-03T05:22:39;95070.44;;;20.06;73.36
788;BME280;16074;42.708;23.312;2022-08-03T05:25:08;95066.13;;;20.16;73.81
788;BME280;16074;42.708;23.312;2022-08-03T05:27:45;95068.09;;;20.21;73.18
788;BME280;16074;42.708;23.312;2022-08-03T05:30:14;95066.00;;;20.23;73.19
788;BME280;16074;42.708;23.312;2022-08-03T05:33:01;95068.00;;;20.16;73.34
788;BME280;16074;42.708;23.312;2022-08-03T05:35:29;95074.94;;;20.17;73.02
788;BME280;16074;42.708;23.312;2022-08-03T05:38:19;95063.09;;;20.24;73.81
788;BME280;16074;42.708;23.312;2022-08-03T05:40:54;95076.44;;;20.24;73.37
788;BME280;16074;42.708;23.312;2022-08-03T05:43:42;95076.06;;;20.32;72.89
788;BME280;16074;42.708;23.312;2022-08-03T05:46:11;95087.44;;;20.28;73.03
788;BME280;16074;42.708;23.312;2022-08-03T05:48:39;95080.44;;;20.38;72.31
788;BME280;16074;42.708;23.312;2022-08-03T05:51:08;95073.75;;;20.36;72.71
788;BME280;16074;42.708;23.312;2022-08-03T05:54:06;95076.00;;;20.43;72.87
788;BME280;16074;42.708;23.312;2022-08-03T05:56:34;95075.88;;;20.50;72.01
788;BME280;16074;42.708;23.312;2022-08-03T05:59:02;95075.63;;;20.51;71.05
788;BME280;16074;42.708;23.312;2022-08-03T06:01:51;95070.59;;;20.66;70.21
788;BME280;16074;42.708;23.312;2022-08-03T06:04:19;95077.66;;;20.72;69.74
788;BME280;16074;42.708;23.312;2022-08-03T06:06:47;95087.66;;;20.65;69.87
788;BME280;16074;42.708;23.312;2022-08-03T06:09:17;95074.03;;;20.78;70.43
788;BME280;16074;42.708;23.312;2022-08-03T06:11:46;95081.69;;;20.86;69.83
788;BME280;16074;42.708;23.312;2022-08-03T06:14:14;95083.06;;;21.05;69.76
788;BME280;16074;42.708;23.312;2022-08-03T06:16:42;95078.94;;;21.14;69.28
788;BME280;16074;42.708;23.312;2022-08-03T06:19:10;95079.53;;;21.16;67.83
788;BME280;16074;42.708;23.312;2022-08-03T06:21:38;95083.50;;;21.30;67.11
788;BME280;16074;42.708;23.312;2022-08-03T06:24:07;95088.53;;;21.43;66.96
788;BME280;16074;42.708;23.312;2022-08-03T06:26:36;95082.78;;;21.51;66.56
788;BME280;16074;42.708;23.312;2022-08-03T06:29:04;95081.72;;;21.69;65.79
788;BME280;16074;42.708;23.312;2022-08-03T06:31:35;95078.19;;;21.84;65.05
788;BME280;16074;42.708;23.312;2022-08-03T06:34:04;95088.75;;;21.91;64.14
788;BME280;16074;42.708;23.312;2022-08-03T06:36:52;95080.16;;;21.89;63.91
788;BME280;16074;42.708;23.312;2022-08-03T06:39:28;95088.06;;;22.00;63.61
788;BME280;16074;42.708;23.312;2022-08-03T06:41:57;95088.84;;;22.17;63.45
788;BME280;16074;42.708;23.312;2022-08-03T06:44:26;95090.59;;;22.28;62.39
788;BME280;16074;42.708;23.312;2022-08-03T06:46:54;95084.88;;;22.41;62.35
788;BME280;16074;42.708;23.312;2022-08-03T06:49:22;95077.47;;;22.48;61.66
788;BME280;16074;42.708;23.312;2022-08-03T06:51:50;95073.09;;;22.64;61.60
788;BME280;16074;42.708;23.312;2022-08-03T06:54:35;95078.03;;;22.77;61.59
788;BME280;16074;42.708;23.312;2022-08-03T06:57:05;95081.72;;;22.92;60.99
788;BME280;16074;42.708;23.312;2022-08-03T06:59:35;95083.25;;;23.09;60.20
788;BME280;16074;42.708;23.312;2022-08-03T07:02:23;95079.72;;;23.35;59.78
788;BME280;16074;42.708;23.312;2022-08-03T07:04:54;95081.50;;;23.56;59.14
788;BME280;16074;42.708;23.312;2022-08-03T07:07:23;95070.38;;;23.74;57.64
788;BME280;16074;42.708;23.312;2022-08-03T07:09:51;95077.47;;;23.90;56.90
788;BME280;16074;42.708;23.312;2022-08-03T07:12:26;95068.25;;;24.22;57.12
788;BME280;16074;42.708;23.312;2022-08-03T07:14:56;95069.13;;;24.43;55.93
788;BME280;16074;42.708;23.312;2022-08-03T07:17:30;95075.19;;;24.70;54.50
788;BME280;16074;42.708;23.312;2022-08-03T07:20:00;95076.06;;;24.90;53.07
788;BME280;16074;42.708;23.312;2022-08-03T07:22:28;95085.56;;;25.23;51.78
788;BME280;16074;42.708;23.312;2022-08-03T07:24:57;95077.22;;;25.54;51.79
788;BME280;16074;42.708;23.312;2022-08-03T07:27:26;95085.03;;;25.75;50.91
788;BME280;16074;42.708;23.312;2022-08-03T07:29:56;95076.34;;;26.23;49.69
788;BME280;16074;42.708;23.312;2022-08-03T07:32:25;95076.22;;;26.63;48.74
788;BME280;16074;42.708;23.312;2022-08-03T07:34:54;95073.41;;;26.88;47.17
788;BME280;16074;42.708;23.312;2022-08-03T07:37:27;95084.69;;;27.43;46.46
788;BME280;16074;42.708;23.312;2022-08-03T07:39:55;95082.00;;;27.77;45.07
788;BME280;16074;42.708;23.312;2022-08-03T07:42:23;95073.28;;;28.13;44.54
788;BME280;16074;42.708;23.312;2022-08-03T07:44:53;95073.56;;;28.40;43.86
788;BME280;16074;42.708;23.312;2022-08-03T07:47:23;95083.06;;;28.61;43.59
788;BME280;16074;42.708;23.312;2022-08-03T07:50:03;95081.59;;;28.92;42.88
788;BME280;16074;42.708;23.312;2022-08-03T07:52:34;95085.56;;;28.99;41.90
788;BME280;16074;42.708;23.312;2022-08-03T07:55:16;95082.19;;;29.25;41.29
788;BME280;16074;42.708;23.312;2022-08-03T07:57:44;95086.38;;;29.36;40.44
788;BME280;16074;42.708;23.312;2022-08-03T08:00:16;95075.34;;;29.33;40.38
788;BME280;16074;42.708;23.312;2022-08-03T08:02:44;95083.38;;;29.75;40.28
788;BME280;16074;42.708;23.312;2022-08-03T08:05:12;95082.31;;;29.89;40.60
788;BME280;16074;42.708;23.312;2022-08-03T08:07:41;95083.19;;;30.03;40.19
788;BME280;16074;42.708;23.312;2022-08-03T08:10:09;95078.28;;;30.32;39.39
788;BME280;16074;42.708;23.312;2022-08-03T08:12:38;95088.69;;;30.57;39.29
788;BME280;16074;42.708;23.312;2022-08-03T08:15:07;95095.25;;;30.83;38.32
788;BME280;16074;42.708;23.312;2022-08-03T08:17:45;95095.63;;;30.76;36.85
788;BME280;16074;42.708;23.312;2022-08-03T08:20:16;95091.22;;;31.07;37.63
788;BME280;16074;42.708;23.312;2022-08-03T08:22:54;95089.38;;;31.16;37.12
788;BME280;16074;42.708;23.312;2022-08-03T08:25:24;95085.75;;;31.21;37.02
788;BME280;16074;42.708;23.312;2022-08-03T08:27:52;95090.16;;;31.30;36.13
788;BME280;16074;42.708;23.312;2022-08-03T08:30:40;95085.16;;;31.81;35.12
788;BME280;16074;42.708;23.312;2022-08-03T08:33:10;95088.72;;;31.46;35.96
788;BME280;16074;42.708;23.312;2022-08-03T08:35:50;95079.19;;;31.71;35.16
788;BME280;16074;42.708;23.312;2022-08-03T08:38:19;95088.06;;;32.06;34.70
788;BME280;16074;42.708;23.312;2022-08-03T08:40:48;95088.66;;;32.17;34.52
788;BME280;16074;42.708;23.312;2022-08-03T08:43:16;95082.59;;;32.50;34.74
788;BME280;16074;42.708;23.312;2022-08-03T08:45:46;95077.53;;;32.35;33.86
788;BME280;16074;42.708;23.312;2022-08-03T08:48:21;95081.59;;;32.46;33.91
788;BME280;16074;42.708;23.312;2022-08-03T08:50:51;95078.19;;;32.71;33.62
788;BME280;16074;42.708;23.312;2022-08-03T08:53:20;95075.13;;;32.64;33.79
788;BME280;16074;42.708;23.312;2022-08-03T08:55:54;95072.53;;;32.98;33.39
788;BME280;16074;42.708;23.312;2022-08-03T08:58:29;95072.69;;;33.02;32.65
788;BME280;16074;42.708;23.312;2022-08-03T09:01:01;95067.78;;;32.73;33.37
788;BME280;16074;42.708;23.312;2022-08-03T09:03:33;95077.47;;;32.96;32.13
788;BME280;16074;42.708;23.312;2022-08-03T09:06:01;95068.56;;;32.65;31.72
788;BME280;16074;42.708;23.312;2022-08-03T09:08:32;95061.94;;;32.88;31.91
788;BME280;16074;42.708;23.312;2022-08-03T09:11:01;95063.19;;;32.91;32.13
788;BME280;16074;42.708;23.312;2022-08-03T09:13:30;95070.28;;;33.08;32.05
788;BME280;16074;42.708;23.312;2022-08-03T09:16:09;95063.47;;;33.28;31.73
788;BME280;16074;42.708;23.312;2022-08-03T09:18:40;95063.47;;;33.45;32.31
788;BME280;16074;42.708;23.312;2022-08-03T09:21:16;95067.69;;;33.76;30.16
788;BME280;16074;42.708;23.312;2022-08-03T09:24:02;95062.03;;;33.90;30.52
788;BME280;16074;42.708;23.312;2022-08-03T09:26:34;95060.91;;;34.08;30.47
788;BME280;16074;42.708;23.312;2022-08-03T09:29:04;95058.25;;;34.37;30.00
788;BME280;16074;42.708;23.312;2022-08-03T09:31:41;95046.56;;;34.36;30.46
788;BME280;16074;42.708;23.312;2022-08-03T09:34:13;95056.19;;;34.42;30.27
788;BME280;16074;42.708;23.312;2022-08-03T09:36:43;95053.63;;;34.37;30.64
788;BME280;16074;42.708;23.312;2022-08-03T09:39:14;95050.38;;;34.43;29.64
788;BME280;16074;42.708;23.312;2022-08-03T09:41:44;95054.44;;;34.29;29.63
788;BME280;16074;42.708;23.312;2022-08-03T09:44:13;95058.97;;;34.08;29.92
788;BME280;16074;42.708;23.312;2022-08-03T09:46:53;95056.25;;;34.00;30.11
788;BME280;16074;42.708;23.312;2022-08-03T09:49:23;95055.16;;;33.84;30.00
788;BME280;16074;42.708;23.312;2022-08-03T09:51:52;95051.16;;;33.73;30.44
788;BME280;16074;42.708;23.312;2022-08-03T09:54:41;95049.69;;;33.84;31.13
788;BME280;16074;42.708;23.312;2022-08-03T09:57:19;95051.41;;;34.22;30.84
788;BME280;16074;42.708;23.312;2022-08-03T09:59:49;95042.00;;;34.48;30.23
788;BME280;16074;42.708;23.312;2022-08-03T10:02:38;95045.56;;;34.40;29.62
788;BME280;16074;42.708;23.312;2022-08-03T10:05:10;95039.81;;;34.79;29.92
788;BME280;16074;42.708;23.312;2022-08-03T10:07:47;95045.69;;;35.19;29.25
788;BME280;16074;42.708;23.312;2022-08-03T10:10:16;95036.78;;;35.10;29.56
788;BME280;16074;42.708;23.312;2022-08-03T10:12:59;95030.84;;;34.99;29.19
788;BME280;16074;42.708;23.312;2022-08-03T10:15:27;95033.91;;;35.27;28.97
788;BME280;16074;42.708;23.312;2022-08-03T10:18:15;95032.41;;;35.09;29.07
788;BME280;16074;42.708;23.312;2022-08-03T10:20:51;95041.22;;;35.64;29.76
788;BME280;16074;42.708;23.312;2022-08-03T10:23:20;95030.25;;;36.04;29.11
788;BME280;16074;42.708;23.312;2022-08-03T10:25:53;95038.56;;;36.52;28.17
788;BME280;16074;42.708;23.312;2022-08-03T10:28:22;95032.56;;;36.14;28.43
788;BME280;16074;42.708;23.312;2022-08-03T10:30:52;95027.31;;;36.01;28.98
788;BME280;16074;42.708;23.312;2022-08-03T10:33:23;95026.31;;;36.38;28.36
788;BME280;16074;42.708;23.312;2022-08-03T10:36:14;95018.16;;;36.86;28.28
788;BME280;16074;42.708;23.312;2022-08-03T10:38:47;95029.47;;;37.08;27.79
788;BME280;16074;42.708;23.312;2022-08-03T10:41:19;95022.25;;;37.27;27.60
788;BME280;16074;42.708;23.312;2022-08-03T10:43:50;95025.34;;;37.26;27.50
788;BME280;16074;42.708;23.312;2022-08-03T10:46:20;95022.25;;;37.39;27.84
788;BME280;16074;42.708;23.312;2022-08-03T10:48:49;95025.81;;;37.04;27.98
788;BME280;16074;42.708;23.312;2022-08-03T10:51:20;95023.97;;;37.20;27.59
788;BME280;16074;42.708;23.312;2022-08-03T10:53:48;95026.09;;;37.62;27.81
788;BME280;16074;42.708;23.312;2022-08-03T10:56:37;95021.81;;;38.32;26.32
788;BME280;16074;42.708;23.312;2022-08-03T10:59:56;95009.94;;;38.89;25.80
788;BME280;16074;42.708;23.312;2022-08-03T11:03:00;95016.28;;;39.59;24.89
788;BME280;16074;42.708;23.312;2022-08-03T11:05:31;95011.38;;;40.05;24.23
788;BME280;16074;42.708;23.312;2022-08-03T11:08:20;95010.75;;;40.34;24.05
788;BME280;16074;42.708;23.312;2022-08-03T11:10:50;95001.91;;;41.15;23.17
788;BME280;16074;42.708;23.312;2022-08-03T11:13:19;95001.41;;;41.32;23.16
788;BME280;16074;42.708;23.312;2022-08-03T11:15:50;94999.31;;;41.51;22.52
788;BME280;16074;42.708;23.312;2022-08-03T11:18:26;94989.00;;;42.40;22.17
788;BME280;16074;42.708;23.312;2022-08-03T11:20:55;94986.31;;;42.14;22.83
788;BME280;16074;42.708;23.312;2022-08-03T11:23:42;94986.94;;;42.73;21.76
788;BME280;16074;42.708;23.312;2022-08-03T11:26:31;94985.66;;;43.68;22.04
788;BME280;16074;42.708;23.312;2022-08-03T11:29:26;94979.75;;;43.76;21.84
788;BME280;16074;42.708;23.312;2022-08-03T11:31:55;94976.53;;;43.67;21.60
788;BME280;16074;42.708;23.312;2022-08-03T11:34:24;94976.75;;;44.09;21.65
788;BME280;16074;42.708;23.312;2022-08-03T11:37:18;94974.13;;;43.56;22.03
788;BME280;16074;42.708;23.312;2022-08-03T11:39:54;94965.94;;;42.69;21.85
788;BME280;16074;42.708;23.312;2022-08-03T11:42:42;94967.06;;;43.65;21.65
788;BME280;16074;42.708;23.312;2022-08-03T11:45:17;94969.91;;;43.93;21.05
788;BME280;16074;42.708;23.312;2022-08-03T11:47:46;94964.97;;;44.37;20.48
788;BME280;16074;42.708;23.312;2022-08-03T11:50:18;94968.53;;;44.58;20.48
788;BME280;16074;42.708;23.312;2022-08-03T11:52:48;94966.56;;;44.62;20.45
788;BME280;16074;42.708;23.312;2022-08-03T11:55:19;94962.63;;;44.91;20.58
788;BME280;16074;42.708;23.312;2022-08-03T11:57:48;94969.75;;;45.27;19.52
788;BME280;16074;42.708;23.312;2022-08-03T12:00:36;94972.50;;;45.51;20.64
788;BME280;16074;42.708;23.312;2022-08-03T12:03:08;94968.06;;;45.64;19.73
788;BME280;16074;42.708;23.312;2022-08-03T12:05:42;94969.38;;;45.25;19.94
788;BME280;16074;42.708;23.312;2022-08-03T12:08:29;94958.91;;;44.07;20.58
788;BME280;16074;42.708;23.312;2022-08-03T12:11:02;94954.75;;;42.98;21.41
788;BME280;16074;42.708;23.312;2022-08-03T12:13:39;94961.41;;;41.48;21.89
788;BME280;16074;42.708;23.312;2022-08-03T12:16:28;94961.66;;;40.62;23.24
788;BME280;16074;42.708;23.312;2022-08-03T12:18:57;94952.03;;;40.08;23.70
788;BME280;16074;42.708;23.312;2022-08-03T12:21:27;94940.81;;;39.22;24.49
788;BME280;16074;42.708;23.312;2022-08-03T12:23:55;94943.94;;;38.39;24.80
788;BME280;16074;42.708;23.312;2022-08-03T12:26:28;94943.56;;;37.83;25.86
788;BME280;16074;42.708;23.312;2022-08-03T12:28:57;94931.94;;;37.46;26.52
788;BME280;16074;42.708;23.312;2022-08-03T12:31:25;94928.22;;;37.27;27.25
788;BME280;16074;42.708;23.312;2022-08-03T12:33:54;94928.84;;;37.48;27.05
788;BME280;16074;42.708;23.312;2022-08-03T12:36:25;94929.06;;;37.70;26.25
788;BME280;16074;42.708;23.312;2022-08-03T12:38:54;94933.41;;;37.99;26.36
788;BME280;16074;42.708;23.312;2022-08-03T12:41:29;94935.88;;;38.04;26.07
788;BME280;16074;42.708;23.312;2022-08-03T12:44:00;94928.31;;;38.74;24.97
788;BME280;16074;42.708;23.312;2022-08-03T12:46:31;94927.41;;;39.77;24.59
788;BME280;16074;42.708;23.312;2022-08-03T12:49:05;94930.91;;;40.15;24.01
788;BME280;16074;42.708;23.312;2022-08-03T12:51:35;94931.84;;;40.93;24.03
788;BME280;16074;42.708;23.312;2022-08-03T12:54:04;94920.91;;;41.89;23.05
788;BME280;16074;42.708;23.312;2022-08-03T12:56:34;94916.78;;;42.45;22.44
788;BME280;16074;42.708;23.312;2022-08-03T12:59:24;94915.97;;;42.44;21.71
788;BME280;16074;42.708;23.312;2022-08-03T13:02:01;94915.81;;;43.28;21.21
788;BME280;16074;42.708;23.312;2022-08-03T13:04:35;94912.63;;;44.14;20.67
788;BME280;16074;42.708;23.312;2022-08-03T13:07:05;94916.56;;;44.17;20.52
788;BME280;16074;42.708;23.312;2022-08-03T13:09:41;94907.13;;;44.49;20.18
788;BME280;16074;42.708;23.312;2022-08-03T13:12:13;94914.59;;;44.21;20.00
788;BME280;16074;42.708;23.312;2022-08-03T13:14:42;94916.25;;;44.92;20.18
788;BME280;16074;42.708;23.312;2022-08-03T13:17:11;94913.03;;;45.00;19.84
788;BME280;16074;42.708;23.312;2022-08-03T13:19:39;94907.53;;;44.41;20.04
788;BME280;16074;42.708;23.312;2022-08-03T13:22:11;94911.44;;;43.27;21.88
788;BME280;16074;42.708;23.312;2022-08-03T13:24:40;94909.63;;;41.68;22.18
788;BME280;16074;42.708;23.312;2022-08-03T13:27:11;94906.75;;;40.76;23.42
788;BME280;16074;42.708;23.312;2022-08-03T13:29:59;94900.91;;;40.10;24.00
788;BME280;16074;42.708;23.312;2022-08-03T13:32:27;94907.69;;;38.99;24.95
788;BME280;16074;42.708;23.312;2022-08-03T13:34:56;94909.94;;;38.78;25.42
788;BME280;16074;42.708;23.312;2022-08-03T13:37:24;94894.75;;;38.19;25.88
788;BME280;16074;42.708;23.312;2022-08-03T13:39:53;94899.00;;;37.74;25.97
788;BME280;16074;42.708;23.312;2022-08-03T13:42:28;94901.47;;;37.08;26.83